Gardner, MA

2:11 PM EST on March 04, 2015 (GMT -0500)
East Templeton Turner Lane | Change Station
CLOSE
Current Station
Personal Weather Station
Location: Templeton, MA
Elevation: 1106 ft
Nearby Weather Stations

Elev 1106 ft 42.55 °N, 72.03 °W | Updated 54 seconds ago

Partly Cloudy
Partly Cloudy
37.8 °F
Feels Like 33 °F
N
5.8
Wind Variable Wind from NNE
Gusts 7.4 mph

Today
High -- | Low -- °F
--% Chance of Precip.
Yesterday
High -- | Low -- °F
Precip. -- in
6:19 AM 5:41 PM
Waxing Gibbous, 99% visible
Pressure 29.76 in
Visibility 10.0 miles
Clouds Clear
Windchill 33 °F
Dew Point 25 °F
Humidity 59%
Rainfall 0.39 in
Snow Depth Not available.
UV 4 out of 12
Pollen .90 out of 12
Air Quality Not available.
Flu Activity Not available.
METAR KFIT 041852Z AUTO 29011G21KT 10SM CLR 06/M03 A2975 RMK AO2 PK WND 30027/1759 SLP078 T00561028

More Conditions Fewer Conditions

Pressure 29.76 in
Visibility 10.0 miles
Clouds Clear
Windchill 33 °F
Dew Point 25 °F
Humidity 59%
Rainfall 0.39 in
Snow Depth Not available.
UV 4 out of 12
Pollen .90 out of 12
Air Quality Not available.
Flu Activity Not available.
METAR KFIT 041852Z AUTO 29011G21KT 10SM CLR 06/M03 A2975 RMK AO2 PK WND 30027/1759 SLP078 T00561028

More Conditions Fewer Conditions

10-Day Weather Forecast

Almanac

Astronomy

Mar. 04, 2015 Rise Set
Actual Time
Civil Twilight
Nautical Twilight
Astronomical Twilight
Moon
Length of Visible Light
Length of Day
Tomorrow will be .
, % of the Moon is Illuminated

Today's Extremes

State Highs State Lows

Community

WunderPhotos

Upload Photos

1,802,543 photos uploaded!

WunderBlogs® & News

Nearby

Air Quality

  Air Quality AQ Index Pollutant
Not available.

Snow Depth

Station Depth Elevation

Earthquake Activity

City Distance Mag. Time & Date
Minimum magnitude displayed is 2.5.

Coastal Water Temperatures

Place Temperature

Nearby Weather Stations